createdAt,value
2022-11-06T00:01:42.484Z,20.03
2022-11-06T00:04:09.989Z,20.30
2022-11-06T00:06:48.523Z,21.50
2022-11-06T00:09:18.291Z,22.97
2022-11-06T00:11:45.887Z,23.93
2022-11-06T00:14:13.750Z,22.47
2022-11-06T00:16:43.485Z,22.57
2022-11-06T00:19:11.585Z,21.73
2022-11-06T00:21:39.485Z,22.63
2022-11-06T00:24:08.365Z,24.57
2022-11-06T00:26:36.721Z,29.13
2022-11-06T00:29:05.619Z,29.87
2022-11-06T00:31:35.439Z,31.23
2022-11-06T00:34:06.553Z,37.67
2022-11-06T00:36:34.852Z,36.77
2022-11-06T00:39:02.440Z,34.80
2022-11-06T00:41:30.436Z,26.20
2022-11-06T00:43:59.118Z,23.33
2022-11-06T00:46:27.630Z,22.93
2022-11-06T00:48:56.266Z,26.40
2022-11-06T00:51:28.145Z,23.30
2022-11-06T00:53:57.372Z,24.20
2022-11-06T00:56:25.448Z,22.97
2022-11-06T00:58:53.207Z,22.30
2022-11-06T01:01:22.053Z,24.07
2022-11-06T01:03:53.847Z,23.47
2022-11-06T01:06:24.203Z,24.27
2022-11-06T01:08:53.757Z,22.53
2022-11-06T01:11:23.387Z,23.97
2022-11-06T01:13:52.666Z,26.07
2022-11-06T01:16:21.092Z,27.73
2022-11-06T01:18:49.418Z,28.10
2022-11-06T01:21:19.735Z,35.60
2022-11-06T01:23:47.894Z,20.63
2022-11-06T01:26:28.870Z,20.27
2022-11-06T01:29:05.642Z,23.53
2022-11-06T01:31:34.843Z,34.73
2022-11-06T01:34:03.759Z,30.87
2022-11-06T01:36:32.219Z,42.23
2022-11-06T01:39:02.949Z,35.67
2022-11-06T01:41:34.371Z,32.57
2022-11-06T01:44:06.204Z,32.53
2022-11-06T01:46:37.420Z,26.33
2022-11-06T01:49:08.029Z,32.67
2022-11-06T01:51:39.865Z,33.13
2022-11-06T01:54:09.626Z,24.47
2022-11-06T01:56:39.606Z,29.00
2022-11-06T01:59:08.630Z,21.03
2022-11-06T02:01:36.378Z,31.80
2022-11-06T02:04:12.250Z,31.27
2022-11-06T02:06:39.858Z,24.37
2022-11-06T02:09:11.230Z,28.33
2022-11-06T02:11:40.415Z,21.27
2022-11-06T02:14:15.252Z,22.17
2022-11-06T02:16:47.877Z,27.57
2022-11-06T02:19:40.531Z,26.50
2022-11-06T02:22:29.677Z,22.83
2022-11-06T02:25:10.525Z,25.53
2022-11-06T02:27:42.782Z,22.57
2022-11-06T02:30:12.301Z,19.90
2022-11-06T02:32:45.158Z,19.20
2022-11-06T02:35:19.401Z,20.77
2022-11-06T02:37:48.997Z,17.23
2022-11-06T02:40:19.460Z,19.93
2022-11-06T02:42:52.559Z,16.80
2022-11-06T02:45:21.744Z,16.57
2022-11-06T02:47:51.504Z,20.87
2022-11-06T02:50:23.578Z,18.60
2022-11-06T02:52:55.951Z,17.33
2022-11-06T02:55:29.113Z,16.13
2022-11-06T02:58:01.568Z,14.60
2022-11-06T03:00:29.626Z,13.67
2022-11-06T03:03:01.431Z,18.07
2022-11-06T03:05:34.466Z,15.30
2022-11-06T03:08:09.474Z,15.83
2022-11-06T03:10:43.503Z,17.60
2022-11-06T03:13:19.201Z,19.20
2022-11-06T03:15:53.443Z,24.70
2022-11-06T03:18:29.207Z,22.73
2022-11-06T03:21:02.438Z,20.60
2022-11-06T03:23:35.483Z,20.50
2022-11-06T03:26:14.219Z,19.83
2022-11-06T03:28:50.869Z,19.43
2022-11-06T03:31:25.847Z,21.00
2022-11-06T03:33:57.754Z,22.60
2022-11-06T03:36:27.937Z,21.97
2022-11-06T03:39:00.297Z,19.23
2022-11-06T03:41:34.154Z,21.30
2022-11-06T03:44:05.745Z,20.37
2022-11-06T03:46:37.123Z,21.93
2022-11-06T03:49:08.514Z,18.87
2022-11-06T03:51:41.967Z,16.40
2022-11-06T03:54:14.938Z,21.30
2022-11-06T03:56:50.837Z,20.27
2022-11-06T03:59:23.403Z,21.53
2022-11-06T04:01:54.888Z,18.37
2022-11-06T04:04:27.424Z,19.60
2022-11-06T04:06:58.822Z,17.60
2022-11-06T04:09:48.378Z,17.33
2022-11-06T04:12:41.107Z,16.67
2022-11-06T04:15:13.754Z,18.13
2022-11-06T04:17:42.202Z,20.17
2022-11-06T04:20:33.483Z,18.40
2022-11-06T04:23:09.521Z,17.30
2022-11-06T04:26:08.072Z,17.67
2022-11-06T04:28:42.834Z,17.90
2022-11-06T04:31:18.022Z,18.43
2022-11-06T04:33:53.734Z,16.93
2022-11-06T04:36:32.440Z,17.00
2022-11-06T04:39:06.310Z,19.47
2022-11-06T04:41:40.605Z,21.17
2022-11-06T04:44:13.687Z,20.13
2022-11-06T04:46:47.322Z,19.33
2022-11-06T04:49:16.287Z,19.20
2022-11-06T04:51:46.939Z,22.53
2022-11-06T04:54:15.347Z,17.50
2022-11-06T04:56:46.031Z,17.67
2022-11-06T04:59:17.478Z,19.13
2022-11-06T05:01:47.061Z,17.37
2022-11-06T05:04:14.774Z,17.83
2022-11-06T05:06:42.347Z,18.10
2022-11-06T05:09:09.898Z,16.70
2022-11-06T05:11:38.342Z,19.47
2022-11-06T05:14:06.021Z,21.10
2022-11-06T05:16:33.574Z,18.00
2022-11-06T05:19:02.431Z,16.57
2022-11-06T05:21:47.865Z,14.63
2022-11-06T05:24:15.447Z,16.33
2022-11-06T05:26:43.110Z,19.43
2022-11-06T05:29:12.249Z,16.80
2022-11-06T05:31:39.770Z,16.13
2022-11-06T05:34:08.683Z,17.17
2022-11-06T05:36:36.197Z,18.43
2022-11-06T05:39:03.756Z,18.97
2022-11-06T05:41:31.308Z,17.37
2022-11-06T05:43:58.906Z,18.97
2022-11-06T05:49:15.413Z,15.00
2022-11-06T05:51:42.950Z,18.93
2022-11-06T05:54:10.493Z,12.97
2022-11-06T05:56:38.105Z,14.60
2022-11-06T05:59:05.761Z,13.97
2022-11-06T06:01:33.452Z,16.73
2022-11-06T06:04:01.095Z,14.93
2022-11-06T06:06:30.179Z,15.47
2022-11-06T06:08:57.702Z,19.20
2022-11-06T06:11:25.223Z,16.40
2022-11-06T06:13:52.747Z,17.97
2022-11-06T06:16:20.323Z,19.97
2022-11-06T06:18:50.716Z,18.40
2022-11-06T06:21:18.703Z,12.67
2022-11-06T06:23:47.589Z,13.57
2022-11-06T06:26:15.170Z,14.77
2022-11-06T06:28:42.703Z,15.30
2022-11-06T06:31:11.119Z,14.40
2022-11-06T06:33:38.629Z,16.33
2022-11-06T06:36:07.261Z,17.47
2022-11-06T06:38:34.777Z,14.47
2022-11-06T06:41:04.747Z,15.13
2022-11-06T06:43:32.347Z,15.23
2022-11-06T06:46:00.393Z,10.83
2022-11-06T06:48:28.909Z,14.80
2022-11-06T06:50:58.423Z,13.63
2022-11-06T06:53:26.054Z,18.20
2022-11-06T06:55:53.654Z,14.33
2022-11-06T06:58:22.815Z,13.57
2022-11-06T07:00:50.777Z,13.83
2022-11-06T07:03:18.333Z,15.80
2022-11-06T07:05:46.754Z,13.00
2022-11-06T07:08:14.827Z,14.00
2022-11-06T07:10:42.745Z,13.80
2022-11-06T07:13:10.576Z,11.67
2022-11-06T07:15:39.637Z,13.90
2022-11-06T07:18:07.929Z,14.47
2022-11-06T07:20:35.698Z,14.17
2022-11-06T07:23:06.531Z,14.73
2022-11-06T07:25:34.202Z,13.27
2022-11-06T07:28:02.919Z,16.57
2022-11-06T07:30:30.865Z,17.00
2022-11-06T07:33:01.378Z,11.03
2022-11-06T07:35:29.103Z,11.63
2022-11-06T07:37:57.107Z,19.03
2022-11-06T07:40:24.625Z,16.67
2022-11-06T07:42:52.171Z,16.17
2022-11-06T07:45:19.691Z,17.57
2022-11-06T07:47:47.321Z,16.33
2022-11-06T07:50:16.233Z,21.37
2022-11-06T07:52:43.739Z,19.53
2022-11-06T07:55:11.243Z,22.20
2022-11-06T07:57:38.802Z,20.83
2022-11-06T08:00:07.871Z,21.33
2022-11-06T08:02:35.505Z,17.83
2022-11-06T08:05:03.087Z,19.73
2022-11-06T08:07:32.063Z,16.80
2022-11-06T08:09:59.622Z,18.37
2022-11-06T08:12:27.126Z,18.30
2022-11-06T08:14:54.637Z,13.60
2022-11-06T08:17:22.129Z,13.27
2022-11-06T08:19:49.628Z,19.80
2022-11-06T08:22:17.148Z,19.40
2022-11-06T08:24:46.007Z,14.80
2022-11-06T08:27:13.663Z,14.83
2022-11-06T08:29:41.860Z,15.03
2022-11-06T08:32:09.499Z,15.53
2022-11-06T08:34:37.166Z,16.13
2022-11-06T08:37:04.694Z,14.57
2022-11-06T08:39:32.306Z,16.53
2022-11-06T08:42:01.807Z,16.13
2022-11-06T08:44:29.314Z,15.37
2022-11-06T08:46:56.829Z,17.07
2022-11-06T08:49:24.356Z,13.57
2022-11-06T08:51:51.856Z,15.57
2022-11-06T08:54:19.370Z,15.30
2022-11-06T08:56:46.913Z,15.73
2022-11-06T08:59:15.744Z,15.47
2022-11-06T09:01:43.383Z,15.77
2022-11-06T09:04:11.007Z,17.47
2022-11-06T09:06:38.667Z,15.30
2022-11-06T09:09:06.185Z,15.20
2022-11-06T09:11:34.042Z,15.67
2022-11-06T09:14:01.798Z,16.87
2022-11-06T09:16:30.685Z,16.73
2022-11-06T09:18:58.830Z,17.13
2022-11-06T09:21:26.574Z,16.23
2022-11-06T09:23:54.119Z,15.03
2022-11-06T09:26:21.637Z,17.60
2022-11-06T09:28:49.180Z,17.27
2022-11-06T09:31:16.693Z,17.77
2022-11-06T09:33:45.553Z,18.03
2022-11-06T09:36:13.068Z,18.40
2022-11-06T09:38:40.618Z,18.33
2022-11-06T09:41:08.444Z,18.27
2022-11-06T09:44:10.493Z,19.07
2022-11-06T09:46:43.901Z,19.30
2022-11-06T09:49:21.783Z,14.20
2022-11-06T09:51:54.109Z,17.97
2022-11-06T09:54:27.767Z,18.90
2022-11-06T09:57:00.570Z,19.33
2022-11-06T09:59:28.469Z,16.63
2022-11-06T10:01:59.877Z,17.60
2022-11-06T10:04:42.799Z,15.73
2022-11-06T10:07:24.695Z,17.97
2022-11-06T10:09:52.257Z,18.03
2022-11-06T10:12:29.472Z,16.37
2022-11-06T10:15:08.441Z,15.77
2022-11-06T10:17:49.039Z,15.60
2022-11-06T10:20:26.816Z,16.63
2022-11-06T10:23:04.119Z,17.50
2022-11-06T10:25:44.473Z,17.90
2022-11-06T10:28:23.406Z,17.43
2022-11-06T10:31:02.026Z,19.30
2022-11-06T10:33:44.377Z,17.57
2022-11-06T10:36:16.467Z,19.03
2022-11-06T10:38:47.226Z,19.50
2022-11-06T10:41:19.652Z,17.90
2022-11-06T10:43:53.389Z,17.83
2022-11-06T10:46:26.255Z,17.30
2022-11-06T10:48:58.248Z,19.10
2022-11-06T10:51:52.688Z,18.30
2022-11-06T10:54:32.081Z,18.77
2022-11-06T10:57:11.533Z,17.30
2022-11-06T10:59:39.193Z,15.30
2022-11-06T11:02:23.817Z,17.03
2022-11-06T11:04:56.706Z,18.17
2022-11-06T11:07:30.266Z,16.73
2022-11-06T11:09:57.782Z,14.73
2022-11-06T11:12:29.471Z,16.27
2022-11-06T11:15:12.434Z,15.27
2022-11-06T11:17:40.907Z,14.43
2022-11-06T11:20:31.100Z,15.07
2022-11-06T11:23:08.440Z,16.07
2022-11-06T11:25:36.204Z,18.50
2022-11-06T11:28:05.244Z,16.73
2022-11-06T11:30:32.990Z,17.17
2022-11-06T11:33:00.525Z,22.50
2022-11-06T11:35:30.596Z,20.47
2022-11-06T11:38:08.259Z,28.63
2022-11-06T11:40:38.654Z,21.23
2022-11-06T11:43:23.496Z,25.70
2022-11-06T11:46:06.718Z,22.37
2022-11-06T11:48:44.760Z,20.50
2022-11-06T11:51:17.030Z,19.50
2022-11-06T11:53:46.218Z,27.27
2022-11-06T11:56:26.553Z,23.03
2022-11-06T11:59:04.467Z,21.57
2022-11-06T12:01:38.430Z,20.90
2022-11-06T12:04:17.682Z,26.77
2022-11-06T12:06:53.886Z,32.73
2022-11-06T12:09:23.960Z,23.90
2022-11-06T12:11:53.599Z,19.33
2022-11-06T12:14:30.220Z,17.87
2022-11-06T12:17:03.685Z,20.35
2022-11-06T12:19:34.374Z,22.07
2022-11-06T12:22:07.687Z,20.17
2022-11-06T12:24:45.597Z,18.70
2022-11-06T12:27:19.511Z,21.80
2022-11-06T12:29:52.365Z,22.57
2022-11-06T12:32:27.430Z,27.92
2022-11-06T12:35:02.521Z,27.83
2022-11-06T12:37:41.061Z,26.63
2022-11-06T12:40:24.707Z,20.98
2022-11-06T12:43:04.745Z,19.65
2022-11-06T12:45:43.911Z,19.20
2022-11-06T12:48:26.979Z,25.52
2022-11-06T12:51:00.484Z,26.35
2022-11-06T12:53:50.743Z,24.67
2022-11-06T12:56:25.151Z,23.52
2022-11-06T12:59:03.665Z,28.13
2022-11-06T13:01:45.833Z,24.55
2022-11-06T13:04:36.760Z,22.60
2022-11-06T13:07:27.925Z,26.35
2022-11-06T13:10:07.721Z,24.48
2022-11-06T13:12:44.933Z,38.47
2022-11-06T13:15:23.813Z,12.15
2022-11-06T13:17:58.319Z,10.85
2022-11-06T13:20:31.170Z,12.10
2022-11-06T13:23:05.667Z,11.98
2022-11-06T13:25:40.019Z,11.90
2022-11-06T13:28:23.775Z,9.32
2022-11-06T13:30:53.042Z,10.55
2022-11-06T13:33:25.567Z,10.50
2022-11-06T13:35:53.470Z,9.95
2022-11-06T13:38:28.079Z,10.40
2022-11-06T13:41:03.450Z,10.90
2022-11-06T13:43:38.359Z,10.52
2022-11-06T13:46:12.032Z,10.38
2022-11-06T13:48:48.193Z,10.15
2022-11-06T13:51:23.804Z,10.50
2022-11-06T13:53:59.854Z,9.90
2022-11-06T13:57:07.183Z,10.23
2022-11-06T13:59:52.467Z,9.20
2022-11-06T14:02:46.104Z,9.93
2022-11-06T14:05:46.107Z,9.90
2022-11-06T14:08:18.565Z,9.68
2022-11-06T14:10:54.765Z,9.82
2022-11-06T14:13:28.232Z,8.63
2022-11-06T14:16:25.133Z,8.45
2022-11-06T14:18:58.005Z,9.10
2022-11-06T14:21:49.934Z,9.63
2022-11-06T14:24:32.726Z,9.90
2022-11-06T14:27:02.237Z,11.33
2022-11-06T14:29:44.466Z,11.13
2022-11-06T14:32:34.426Z,10.85
2022-11-06T14:35:46.865Z,11.87
2022-11-06T14:38:44.264Z,9.98
2022-11-06T14:41:51.166Z,9.80
2022-11-06T14:44:38.281Z,10.13
2022-11-06T14:47:09.515Z,9.47
2022-11-06T14:49:43.684Z,9.97
2022-11-06T14:52:13.939Z,10.93
2022-11-06T14:54:50.716Z,11.98
2022-11-06T14:57:34.379Z,11.50
2022-11-06T15:00:02.351Z,11.82
2022-11-06T15:02:34.309Z,11.30
2022-11-06T15:05:06.383Z,11.47
2022-11-06T15:08:04.891Z,11.20
2022-11-06T15:10:53.006Z,10.90
2022-11-06T15:13:30.140Z,14.10
2022-11-06T15:16:03.390Z,13.07
2022-11-06T15:18:33.327Z,11.73
2022-11-06T15:21:04.772Z,12.27
2022-11-06T15:23:38.277Z,10.47
2022-11-06T15:26:09.539Z,10.67
2022-11-06T15:28:44.166Z,10.70
2022-11-06T15:31:17.772Z,12.63
2022-11-06T15:33:56.198Z,11.53
2022-11-06T15:36:27.517Z,12.30
2022-11-06T15:38:55.110Z,15.30
2022-11-06T15:41:25.537Z,13.83
2022-11-06T15:43:55.920Z,13.17
2022-11-06T15:46:26.690Z,12.77
2022-11-06T15:49:08.331Z,16.63
2022-11-06T15:51:40.076Z,14.60
2022-11-06T15:54:07.624Z,22.47
2022-11-06T15:56:36.626Z,33.47
2022-11-06T15:59:10.679Z,35.77
2022-11-06T16:01:38.716Z,27.67
2022-11-06T16:04:15.679Z,31.53
2022-11-06T16:06:47.512Z,20.43
2022-11-06T16:09:18.927Z,24.77
2022-11-06T16:11:48.615Z,22.60
2022-11-06T16:14:16.342Z,22.93
2022-11-06T16:16:47.158Z,25.93
2022-11-06T16:19:25.599Z,28.30
2022-11-06T16:21:58.055Z,26.20
2022-11-06T16:24:28.619Z,20.40
2022-11-06T16:26:56.834Z,38.97
2022-11-06T16:29:27.773Z,21.23
2022-11-06T16:32:04.246Z,16.77
2022-11-06T16:34:37.463Z,19.03
2022-11-06T16:37:07.958Z,21.10
2022-11-06T16:39:49.910Z,33.43
2022-11-06T16:42:29.264Z,26.40
2022-11-06T16:45:01.947Z,29.17
2022-11-06T16:47:30.082Z,26.60
2022-11-06T16:49:59.574Z,22.13
2022-11-06T16:52:31.974Z,25.80
2022-11-06T16:55:02.947Z,24.23
2022-11-06T16:57:33.393Z,23.47
2022-11-06T17:00:03.860Z,43.17
2022-11-06T17:02:34.333Z,35.20
2022-11-06T17:05:11.798Z,28.57
2022-11-06T17:07:41.428Z,22.70
2022-11-06T17:10:43.007Z,20.67
2022-11-06T17:13:16.055Z,24.33
2022-11-06T17:15:45.159Z,36.70
2022-11-06T17:18:16.838Z,26.33
2022-11-06T17:20:52.736Z,21.97
2022-11-06T17:23:21.926Z,33.40
2022-11-06T17:25:51.198Z,27.63
2022-11-06T17:28:19.417Z,30.67
2022-11-06T17:30:48.052Z,32.60
2022-11-06T17:33:16.420Z,31.07
2022-11-06T17:35:44.114Z,30.37
2022-11-06T17:38:13.869Z,36.47
2022-11-06T17:40:43.000Z,28.67
2022-11-06T17:43:11.450Z,36.70
2022-11-06T17:45:41.029Z,27.57
2022-11-06T17:48:08.596Z,31.23
2022-11-06T17:50:56.086Z,30.03
2022-11-06T17:53:23.658Z,27.20
2022-11-06T17:55:52.556Z,32.43
2022-11-06T17:58:20.081Z,29.50
2022-11-06T18:00:47.733Z,31.53
2022-11-06T18:03:19.510Z,29.27
2022-11-06T18:05:47.281Z,29.17
2022-11-06T18:08:15.916Z,25.27
2022-11-06T18:10:43.739Z,26.77
2022-11-06T18:13:12.597Z,28.03
2022-11-06T18:15:40.389Z,28.93
2022-11-06T18:18:07.903Z,26.20
2022-11-06T18:20:35.405Z,26.87
2022-11-06T18:23:02.945Z,26.10
2022-11-06T18:25:30.510Z,29.17
2022-11-06T18:28:03.304Z,31.30
2022-11-06T18:30:32.589Z,30.33
2022-11-06T18:33:00.377Z,27.80
2022-11-06T18:35:27.905Z,29.10
2022-11-06T18:37:55.453Z,27.23
2022-11-06T18:40:23.078Z,26.93
2022-11-06T18:42:53.500Z,27.37
2022-11-06T18:45:21.063Z,34.87
2022-11-06T18:47:49.931Z,27.37
2022-11-06T18:50:17.623Z,27.03
2022-11-06T18:52:57.450Z,27.57
2022-11-06T18:55:25.735Z,27.37
2022-11-06T18:57:53.733Z,25.73
2022-11-06T19:00:21.621Z,25.70
2022-11-06T19:02:50.684Z,24.77
2022-11-06T19:05:18.948Z,26.73
2022-11-06T19:07:51.980Z,25.37
2022-11-06T19:10:21.586Z,28.93
2022-11-06T19:12:49.172Z,28.00
2022-11-06T19:15:16.835Z,28.53
2022-11-06T19:17:44.366Z,28.67
2022-11-06T19:20:15.049Z,32.27
2022-11-06T19:22:42.960Z,26.93
2022-11-06T19:25:10.846Z,27.87
2022-11-06T19:27:38.381Z,27.00
2022-11-06T19:30:07.068Z,27.33
2022-11-06T19:32:34.663Z,28.00
2022-11-06T19:35:02.191Z,28.10
2022-11-06T19:37:32.258Z,25.20
2022-11-06T19:40:04.522Z,26.40
2022-11-06T19:42:33.380Z,25.70
2022-11-06T19:45:01.451Z,25.93
2022-11-06T19:47:29.216Z,27.70
2022-11-06T19:49:56.917Z,25.93
2022-11-06T19:52:43.273Z,27.63
2022-11-06T19:55:24.877Z,28.10
2022-11-06T19:57:54.961Z,29.17
2022-11-06T20:00:22.542Z,28.83
2022-11-06T20:02:50.822Z,28.20
2022-11-06T20:05:18.637Z,28.87
2022-11-06T20:07:46.269Z,29.77
2022-11-06T20:10:15.121Z,30.27
2022-11-06T20:12:42.632Z,30.03
2022-11-06T20:15:10.883Z,28.93
2022-11-06T20:17:38.752Z,26.90
2022-11-06T20:20:07.291Z,28.47
2022-11-06T20:22:34.835Z,28.33
2022-11-06T20:25:02.365Z,28.87
2022-11-06T20:27:31.271Z,28.60
2022-11-06T20:29:58.782Z,28.87
2022-11-06T20:32:26.394Z,29.60
2022-11-06T20:34:53.882Z,30.03
2022-11-06T20:37:21.431Z,29.13
2022-11-06T20:39:49.567Z,29.53
2022-11-06T20:42:17.099Z,30.87
2022-11-06T20:44:46.026Z,31.33
2022-11-06T20:47:14.098Z,30.43
2022-11-06T20:49:42.924Z,31.77
2022-11-06T20:52:15.001Z,30.77
2022-11-06T20:54:47.170Z,28.77
2022-11-06T20:57:15.149Z,27.67
2022-11-06T20:59:42.772Z,27.40
2022-11-06T21:02:12.295Z,27.87
2022-11-06T21:04:40.087Z,27.50
2022-11-06T21:07:07.722Z,24.03
2022-11-06T21:09:36.226Z,24.30
2022-11-06T21:12:03.884Z,26.07
2022-11-06T21:14:31.583Z,26.43
2022-11-06T21:16:59.152Z,25.27
2022-11-06T21:19:28.034Z,24.80
2022-11-06T21:21:56.751Z,25.43
2022-11-06T21:24:24.969Z,26.37
2022-11-06T21:26:55.005Z,26.53
2022-11-06T21:29:23.894Z,25.37
2022-11-06T21:31:52.064Z,25.03
2022-11-06T21:34:20.311Z,23.97
2022-11-06T21:36:49.252Z,23.37
2022-11-06T21:39:18.578Z,24.07
2022-11-06T21:41:46.808Z,24.17
2022-11-06T21:44:15.881Z,22.67
2022-11-06T21:46:45.549Z,25.03
2022-11-06T21:49:13.762Z,23.80
2022-11-06T21:51:41.580Z,24.63
2022-11-06T21:54:29.677Z,23.53
2022-11-06T21:56:57.462Z,23.67
2022-11-06T21:59:27.241Z,23.17
2022-11-06T22:01:55.307Z,23.40
2022-11-06T22:04:23.574Z,25.20
2022-11-06T22:06:52.241Z,24.80
2022-11-06T22:09:25.409Z,25.13
2022-11-06T22:11:54.064Z,24.37
2022-11-06T22:14:21.619Z,23.57
2022-11-06T22:16:49.787Z,24.20
2022-11-06T22:19:18.501Z,24.27
2022-11-06T22:21:46.199Z,23.23
2022-11-06T22:24:14.694Z,22.70
2022-11-06T22:26:43.756Z,23.37
2022-11-06T22:29:13.311Z,22.53
2022-11-06T22:31:41.525Z,22.47
2022-11-06T22:34:10.462Z,22.43
2022-11-06T22:36:38.088Z,21.77
2022-11-06T22:39:06.374Z,21.97
2022-11-06T22:41:33.978Z,21.43
2022-11-06T22:44:02.952Z,21.50
2022-11-06T22:46:31.316Z,20.07
2022-11-06T22:48:59.112Z,22.10
2022-11-06T22:51:29.727Z,21.73
2022-11-06T22:53:57.659Z,20.97
2022-11-06T22:56:26.931Z,20.47
2022-11-06T22:58:55.232Z,20.07
2022-11-06T23:01:25.343Z,19.43
2022-11-06T23:03:56.405Z,20.43
2022-11-06T23:06:24.862Z,20.40
2022-11-06T23:08:52.977Z,18.87
2022-11-06T23:11:22.157Z,19.40
2022-11-06T23:13:49.738Z,17.50
2022-11-06T23:16:39.595Z,19.30
2022-11-06T23:19:08.805Z,18.40
2022-11-06T23:21:36.538Z,19.47
2022-11-06T23:24:04.594Z,19.80
2022-11-06T23:26:32.227Z,17.70
2022-11-06T23:28:59.804Z,18.90
2022-11-06T23:31:27.362Z,18.27
2022-11-06T23:33:56.159Z,17.90
2022-11-06T23:36:25.049Z,18.53
2022-11-06T23:38:54.437Z,16.57
2022-11-06T23:41:40.134Z,15.83
2022-11-06T23:44:28.615Z,16.10
2022-11-06T23:46:55.230Z,16.10
2022-11-06T23:49:22.878Z,15.90
2022-11-06T23:51:51.986Z,16.60
2022-11-06T23:54:19.645Z,13.80
2022-11-06T23:56:47.179Z,13.80
2022-11-06T23:59:14.815Z,12.60
